Time;durP1;ratioP1;P1;durP2;ratioP2;P2;SDS_P1;SDS_P2;PMS_P1;PMS_P2;Temp;Humidity;BMP_temperature;BMP_pressure;BME280_temperature;BME280_humidity;BME280_pressure;Samples;Min_cycle;Max_cycle;Signal;HPM_P1;HPM_P2
2022/04/16 00:01:49;;;;;;;34.93;21.00;;;8.00;74.10;;;;;;4976428;28;20442;-74
2022/04/16 00:04:15;;;;;;;37.95;21.83;;;8.00;74.20;;;;;;4977074;28;20409;-74
2022/04/16 00:06:40;;;;;;;32.47;20.42;;;8.00;74.50;;;;;;4980774;28;20877;-75
2022/04/16 00:09:06;;;;;;;33.53;22.05;;;8.00;74.50;;;;;;4979772;28;20427;-74
2022/04/16 00:11:32;;;;;;;32.83;21.08;;;8.00;74.60;;;;;;4976615;28;20404;-74
2022/04/16 00:13:57;;;;;;;32.30;21.30;;;8.00;74.60;;;;;;4976850;28;20777;-74
2022/04/16 00:16:23;;;;;;;36.77;22.07;;;7.90;74.30;;;;;;4977538;28;20481;-76
2022/04/16 00:18:48;;;;;;;35.20;22.00;;;7.90;75.00;;;;;;4977299;28;20406;-74
2022/04/16 00:21:14;;;;;;;33.40;22.10;;;7.90;75.00;;;;;;4977331;28;20399;-75
2022/04/16 00:23:43;;;;;;;35.77;23.23;;;7.90;76.20;;;;;;4976142;28;20503;-74
2022/04/16 00:26:12;;;;;;;36.45;23.10;;;7.90;77.50;;;;;;4977463;28;20389;-73
2022/04/16 00:28:40;;;;;;;38.10;22.75;;;7.90;77.50;;;;;;4977132;28;20394;-73
2022/04/16 00:31:06;;;;;;;40.30;22.60;;;7.90;77.00;;;;;;4971389;28;20486;-73
2022/04/16 00:33:33;;;;;;;38.00;23.33;;;7.90;77.20;;;;;;4974644;28;20506;-72
2022/04/16 00:36:02;;;;;;;33.20;21.98;;;7.90;76.20;;;;;;4976771;28;20404;-73
2022/04/16 00:38:28;;;;;;;39.25;24.23;;;7.80;77.40;;;;;;4977385;28;20403;-73
2022/04/16 00:40:53;;;;;;;35.53;23.40;;;7.80;78.50;;;;;;4973138;28;20410;-73
2022/04/16 00:43:30;;;;;;;36.90;23.30;;;7.70;79.80;;;;;;4976300;28;20438;-74
2022/04/16 00:45:56;;;;;;;36.15;23.67;;;7.70;80.50;;;;;;4977344;28;20437;-74
2022/04/16 00:48:23;;;;;;;37.33;23.13;;;7.70;79.70;;;;;;4977313;28;20959;-73
2022/04/16 00:50:50;;;;;;;36.28;22.77;;;7.80;79.60;;;;;;4976709;28;20403;-73
2022/04/16 00:53:16;;;;;;;36.75;23.25;;;7.80;79.00;;;;;;4975243;28;20427;-74
2022/04/16 00:55:42;;;;;;;39.17;23.20;;;7.80;79.50;;;;;;4976633;28;20411;-72
2022/04/16 00:58:08;;;;;;;38.08;23.63;;;7.80;79.50;;;;;;4975364;28;20474;-73
2022/04/16 01:00:34;;;;;;;36.20;24.00;;;7.80;78.80;;;;;;4973865;28;20396;-73
2022/04/16 01:03:00;;;;;;;41.33;25.73;;;7.70;80.40;;;;;;4973443;28;20420;-74
2022/04/16 01:05:26;;;;;;;41.53;25.63;;;7.70;82.80;;;;;;4974504;28;20412;-73
2022/04/16 01:07:58;;;;;;;38.20;25.65;;;7.70;81.70;;;;;;4973637;28;20404;-73
2022/04/16 01:10:29;;;;;;;42.10;25.27;;;7.80;81.60;;;;;;4973908;28;20392;-74
2022/04/16 01:12:56;;;;;;;39.80;24.80;;;7.80;82.00;;;;;;4972655;28;20412;-73
2022/04/16 01:15:23;;;;;;;42.25;25.85;;;7.80;81.50;;;;;;4973367;28;20406;-74
2022/04/16 01:17:50;;;;;;;43.35;26.58;;;7.80;82.60;;;;;;4973380;28;20400;-74
2022/04/16 01:20:17;;;;;;;40.47;25.75;;;7.80;83.40;;;;;;4973741;28;20901;-73
2022/04/16 01:22:45;;;;;;;40.13;25.48;;;7.90;81.20;;;;;;4972196;28;20458;-74
2022/04/16 01:25:11;;;;;;;39.95;26.25;;;7.80;82.20;;;;;;4974255;28;20419;-74
2022/04/16 01:27:36;;;;;;;45.10;26.05;;;7.80;83.50;;;;;;4972539;28;20451;-72
2022/04/16 01:30:05;;;;;;;41.00;25.47;;;7.90;82.20;;;;;;4972104;28;20865;-74
2022/04/16 01:32:34;;;;;;;42.20;26.00;;;8.00;80.80;;;;;;4972388;28;20904;-72
2022/04/16 01:35:00;;;;;;;41.13;25.27;;;8.00;80.00;;;;;;4973208;28;20410;-73
2022/04/16 01:37:33;;;;;;;43.58;27.10;;;8.00;79.90;;;;;;4973669;28;20410;-75
2022/04/16 01:40:03;;;;;;;42.90;26.08;;;7.90;80.00;;;;;;4973098;28;20412;-75
2022/04/16 01:42:29;;;;;;;40.80;25.85;;;8.00;81.60;;;;;;4973374;28;20443;-74
2022/04/16 01:44:56;;;;;;;41.58;26.15;;;8.00;80.40;;;;;;4973624;28;20488;-75
2022/04/16 01:47:22;;;;;;;42.10;26.38;;;8.10;78.90;;;;;;4973228;28;20474;-73
2022/04/16 01:49:47;;;;;;;42.23;25.80;;;8.10;78.30;;;;;;4973360;28;20483;-74
2022/04/16 01:52:13;;;;;;;41.47;26.40;;;8.10;78.20;;;;;;4973072;28;20427;-73
2022/04/16 01:54:41;;;;;;;48.10;28.08;;;8.10;78.80;;;;;;4972914;28;20419;-73
2022/04/16 01:57:06;;;;;;;45.42;27.13;;;8.00;79.00;;;;;;4972375;28;20427;-75
2022/04/16 01:59:32;;;;;;;42.83;27.52;;;8.00;80.00;;;;;;4971741;28;20408;-74
2022/04/16 02:01:58;;;;;;;44.40;28.40;;;8.00;80.20;;;;;;4971916;28;20420;-74
2022/04/16 02:04:24;;;;;;;48.33;29.53;;;7.90;80.10;;;;;;4971873;28;20448;-74
2022/04/16 02:06:51;;;;;;;45.25;27.77;;;7.90;80.60;;;;;;4972287;28;20396;-74
2022/04/16 02:09:17;;;;;;;45.60;29.42;;;7.90;81.80;;;;;;4972727;28;20897;-73
2022/04/16 02:11:43;;;;;;;47.40;29.45;;;7.80;82.80;;;;;;4972687;28;20450;-74
2022/04/16 02:14:08;;;;;;;45.15;27.73;;;7.80;83.20;;;;;;4971694;28;20793;-74
2022/04/16 02:16:34;;;;;;;49.97;29.02;;;7.80;82.60;;;;;;4971428;28;20431;-74
2022/04/16 02:19:00;;;;;;;43.37;27.97;;;7.80;82.60;;;;;;4973767;28;20466;-74
2022/04/16 02:21:26;;;;;;;42.10;27.10;;;7.80;82.30;;;;;;4975662;28;20411;-74
2022/04/16 02:23:52;;;;;;;45.75;28.52;;;7.80;82.00;;;;;;4980217;28;20410;-73
2022/04/16 02:26:20;;;;;;;46.13;27.10;;;7.70;82.90;;;;;;4977111;28;20480;-74
2022/04/16 02:28:47;;;;;;;51.60;28.88;;;7.80;82.40;;;;;;4973219;28;20486;-74
2022/04/16 02:31:13;;;;;;;47.33;29.27;;;7.80;81.80;;;;;;4972447;28;20407;-74
2022/04/16 02:33:38;;;;;;;44.05;27.50;;;7.80;81.70;;;;;;4971089;28;20418;-76
2022/04/16 02:36:05;;;;;;;44.25;27.75;;;7.70;81.90;;;;;;4971987;28;20411;-74
2022/04/16 02:38:30;;;;;;;42.88;26.80;;;7.70;82.20;;;;;;4971859;28;20885;-74
2022/04/16 02:40:56;;;;;;;42.80;28.45;;;7.70;82.60;;;;;;4967636;28;20435;-74
2022/04/16 02:43:22;;;;;;;50.33;27.70;;;7.70;82.90;;;;;;4972316;28;20428;-73
2022/04/16 02:48:33;;;;;;;45.42;28.50;;;7.60;83.70;;;;;;4972073;28;20821;-73
2022/04/16 02:50:58;;;;;;;43.63;28.85;;;7.60;83.90;;;;;;4971931;28;20465;-73
2022/04/16 02:53:26;;;;;;;45.23;29.40;;;7.50;84.60;;;;;;4970169;28;20408;-74
2022/04/16 02:55:54;;;;;;;49.03;30.08;;;7.50;86.20;;;;;;4971843;28;20420;-73
2022/04/16 02:58:20;;;;;;;49.28;31.10;;;7.30;86.20;;;;;;4972521;28;20882;-73
2022/04/16 03:00:46;;;;;;;50.10;30.83;;;7.20;89.60;;;;;;4972569;28;20399;-73
2022/04/16 03:03:12;;;;;;;50.58;29.75;;;7.10;90.10;;;;;;4966143;28;20423;-73
2022/04/16 03:05:37;;;;;;;46.27;29.90;;;7.10;91.80;;;;;;4970417;28;20472;-75
2022/04/16 03:08:06;;;;;;;49.30;30.00;;;7.00;89.50;;;;;;4970760;28;20432;-73
2022/04/16 03:10:31;;;;;;;45.35;29.27;;;7.00;90.60;;;;;;4972179;28;20392;-75
2022/04/16 03:12:57;;;;;;;52.22;30.20;;;6.90;89.90;;;;;;4970106;28;20419;-73
2022/04/16 03:18:09;;;;;;;52.90;31.20;;;6.90;91.40;;;;;;4971293;28;20602;-74
2022/04/16 03:20:34;;;;;;;56.08;31.80;;;7.00;93.00;;;;;;4970103;28;20396;-74
2022/04/16 03:23:00;;;;;;;49.35;32.00;;;7.10;92.40;;;;;;4969865;28;20416;-73
2022/04/16 03:25:29;;;;;;;51.60;31.80;;;7.10;91.30;;;;;;4971571;28;20903;-72
2022/04/16 03:27:56;;;;;;;50.42;31.42;;;7.20;91.30;;;;;;4971108;28;20444;-74
2022/04/16 03:30:23;;;;;;;54.40;31.67;;;7.30;89.80;;;;;;4971238;28;20400;-72
2022/04/16 03:32:49;;;;;;;48.55;29.20;;;7.40;88.30;;;;;;4971847;28;20408;-73
2022/04/16 03:35:18;;;;;;;51.40;31.70;;;7.50;87.20;;;;;;4974450;28;20826;-73
2022/04/16 03:37:44;;;;;;;54.92;30.70;;;7.50;86.40;;;;;;4971238;28;20450;-73
2022/04/16 03:40:12;;;;;;;51.97;32.15;;;7.50;86.80;;;;;;4970613;28;20757;-73
2022/04/16 03:42:48;;;;;;;55.97;31.38;;;7.50;86.70;;;;;;4966597;28;20412;-73
2022/04/16 03:45:23;;;;;;;53.38;32.45;;;7.50;86.50;;;;;;4970290;28;20487;-73
2022/04/16 03:47:50;;;;;;;54.60;32.30;;;7.60;86.10;;;;;;4970990;28;20878;-72
2022/04/16 03:50:19;;;;;;;50.88;30.45;;;7.60;85.60;;;;;;4980099;28;20447;-72
2022/04/16 03:52:46;;;;;;;51.03;31.50;;;7.50;86.40;;;;;;4968045;28;20487;-72
2022/04/16 04:00:47;;;;;;;52.95;32.17;;;7.50;86.40;;;;;;4971436;28;20754;-74
2022/04/16 04:03:13;;;;;;;49.22;31.48;;;7.50;86.50;;;;;;4976808;28;20419;-73
2022/04/16 04:05:39;;;;;;;46.20;30.40;;;7.40;86.10;;;;;;4975128;28;20414;-73
2022/04/16 04:08:06;;;;;;;58.03;32.40;;;7.50;86.50;;;;;;4970944;28;20418;-73
2022/04/16 04:10:32;;;;;;;54.70;31.60;;;7.40;86.20;;;;;;4970202;28;20418;-73
2022/04/16 04:12:57;;;;;;;48.00;30.73;;;7.40;86.00;;;;;;4969595;28;20404;-72
2022/04/16 04:15:23;;;;;;;49.90;30.70;;;7.40;85.30;;;;;;4970936;28;20415;-74
2022/04/16 04:17:50;;;;;;;52.28;29.85;;;7.40;85.00;;;;;;4969914;28;20408;-73
2022/04/16 04:20:15;;;;;;;53.50;32.85;;;7.30;84.80;;;;;;4969251;28;20483;-73
2022/04/16 04:22:41;;;;;;;51.90;32.93;;;7.30;85.00;;;;;;4969542;28;20412;-73
2022/04/16 04:25:07;;;;;;;52.85;32.47;;;7.30;86.00;;;;;;4970139;28;20411;-73
2022/04/16 04:27:32;;;;;;;52.42;32.25;;;7.30;86.90;;;;;;4971203;28;20400;-73
2022/04/16 04:30:01;;;;;;;60.33;34.00;;;7.30;87.90;;;;;;4970381;28;20439;-73
2022/04/16 04:32:30;;;;;;;56.08;34.25;;;7.30;88.60;;;;;;4971494;28;20404;-74
2022/04/16 04:34:56;;;;;;;54.85;34.60;;;7.40;88.30;;;;;;4975208;28;20404;-73
2022/04/16 04:37:22;;;;;;;55.75;33.92;;;7.30;89.30;;;;;;4977921;28;20415;-75
2022/04/16 04:39:48;;;;;;;54.30;33.40;;;7.40;89.30;;;;;;4975341;28;20404;-74
2022/04/16 04:42:23;;;;;;;57.58;34.95;;;7.40;89.00;;;;;;4974783;28;20412;-74
2022/04/16 04:44:48;;;;;;;59.80;34.63;;;7.40;88.90;;;;;;4974583;28;20813;-73
2022/04/16 04:47:14;;;;;;;58.97;33.93;;;7.50;89.50;;;;;;4974577;28;20506;-74
2022/04/16 04:49:39;;;;;;;63.30;36.57;;;7.40;90.50;;;;;;4974351;28;20407;-73
2022/04/16 04:52:05;;;;;;;66.03;36.57;;;7.50;91.40;;;;;;4972451;28;20431;-73
2022/04/16 04:54:31;;;;;;;61.63;36.88;;;7.60;91.00;;;;;;4973475;28;20403;-73
2022/04/16 04:56:56;;;;;;;62.47;35.67;;;7.70;90.10;;;;;;4972016;28;20432;-74
2022/04/16 04:59:22;;;;;;;66.20;37.60;;;7.70;90.50;;;;;;4972860;28;20423;-73
2022/04/16 05:01:47;;;;;;;62.67;35.13;;;7.70;90.00;;;;;;4971722;28;20416;-73
2022/04/16 05:04:13;;;;;;;64.27;36.93;;;7.80;91.60;;;;;;4974064;28;20735;-74
2022/04/16 05:06:39;;;;;;;62.67;36.27;;;7.80;90.20;;;;;;4975292;28;20404;-73
2022/04/16 05:09:04;;;;;;;62.13;36.00;;;7.80;91.20;;;;;;4981282;28;20432;-74
2022/04/16 05:11:30;;;;;;;62.67;35.43;;;7.80;92.70;;;;;;4981547;28;20396;-74
2022/04/16 05:13:55;;;;;;;55.93;35.00;;;7.90;94.00;;;;;;4974885;28;20412;-73
2022/04/16 05:16:21;;;;;;;56.67;34.40;;;8.00;91.70;;;;;;4973545;28;20420;-73
2022/04/16 05:18:46;;;;;;;53.23;32.93;;;8.20;88.60;;;;;;4972567;28;20412;-73
2022/04/16 05:21:12;;;;;;;52.07;33.00;;;8.30;83.70;;;;;;4973314;28;20412;-74
2022/04/16 05:23:39;;;;;;;56.77;31.37;;;8.20;81.80;;;;;;4974182;28;20953;-74
2022/04/16 05:26:07;;;;;;;56.97;32.15;;;8.30;83.20;;;;;;4973241;28;20503;-74
2022/04/16 05:28:32;;;;;;;55.33;32.75;;;8.40;80.60;;;;;;4974395;28;20393;-74
2022/04/16 05:30:59;;;;;;;56.97;33.28;;;8.50;78.20;;;;;;4973536;28;20415;-74
2022/04/16 05:36:09;;;;;;;54.22;33.25;;;8.50;78.10;;;;;;4973369;28;20750;-74
2022/04/16 05:38:34;;;;;;;53.03;30.40;;;8.60;76.40;;;;;;4973849;28;20416;-74
2022/04/16 05:41:00;;;;;;;48.83;29.92;;;8.70;74.70;;;;;;4966506;28;20402;-74
2022/04/16 05:43:26;;;;;;;51.20;29.88;;;8.80;71.30;;;;;;4971032;28;20416;-74
2022/04/16 05:45:52;;;;;;;47.45;28.20;;;8.80;69.50;;;;;;4971220;28;20765;-73
2022/04/16 05:48:18;;;;;;;52.22;30.33;;;8.70;67.70;;;;;;4973217;28;20404;-73
2022/04/16 05:50:44;;;;;;;55.92;31.40;;;8.50;69.90;;;;;;4972570;28;20399;-73
2022/04/16 05:53:12;;;;;;;53.07;32.37;;;8.40;72.00;;;;;;4970122;28;20443;-73
2022/04/16 05:55:40;;;;;;;55.67;31.90;;;8.50;73.90;;;;;;4971348;28;20412;-72
2022/04/16 05:58:07;;;;;;;51.25;30.70;;;8.50;76.10;;;;;;4973814;28;20416;-73
2022/04/16 06:00:33;;;;;;;51.50;30.97;;;8.60;78.10;;;;;;4976369;28;20419;-73
2022/04/16 06:02:59;;;;;;;52.08;32.92;;;8.80;79.50;;;;;;4972851;28;20478;-73
2022/04/16 06:05:25;;;;;;;56.95;32.33;;;8.80;78.50;;;;;;4973928;28;20428;-73
2022/04/16 06:07:50;;;;;;;58.63;33.00;;;9.00;79.70;;;;;;4973644;28;20451;-73
2022/04/16 06:10:16;;;;;;;54.15;32.40;;;9.10;77.10;;;;;;4973404;28;20411;-74
2022/04/16 06:12:41;;;;;;;54.38;32.53;;;9.30;78.00;;;;;;4972047;28;20412;-74
2022/04/16 06:15:08;;;;;;;54.05;31.85;;;9.50;76.10;;;;;;4972768;28;20928;-76
2022/04/16 06:17:34;;;;;;;52.45;32.40;;;9.60;74.90;;;;;;4971761;28;20486;-74
2022/04/16 06:20:00;;;;;;;51.38;31.10;;;9.60;72.90;;;;;;4972217;28;20427;-74
2022/04/16 06:22:25;;;;;;;52.23;31.90;;;9.80;69.30;;;;;;4969296;28;20420;-74
2022/04/16 06:24:51;;;;;;;56.60;33.20;;;9.90;68.40;;;;;;4971218;28;20427;-74
2022/04/16 06:27:16;;;;;;;48.90;30.60;;;9.90;66.50;;;;;;4972077;28;21016;-74
2022/04/16 06:29:42;;;;;;;54.17;30.40;;;10.00;67.00;;;;;;4969016;28;20770;-74
2022/04/16 06:32:08;;;;;;;48.00;28.63;;;10.00;65.20;;;;;;4968065;28;20451;-74
2022/04/16 06:34:33;;;;;;;48.03;28.30;;;10.10;63.30;;;;;;4971380;28;20416;-74
2022/04/16 06:36:59;;;;;;;49.47;30.17;;;10.20;62.20;;;;;;4972434;28;20879;-74
2022/04/16 06:39:25;;;;;;;43.03;27.80;;;10.30;61.90;;;;;;4967026;28;20411;-74
2022/04/16 06:41:51;;;;;;;45.08;28.80;;;10.30;59.20;;;;;;4972662;28;20898;-73
2022/04/16 06:44:17;;;;;;;48.00;30.50;;;10.40;59.90;;;;;;4971739;28;20404;-73
2022/04/16 06:46:42;;;;;;;43.97;28.93;;;10.50;59.60;;;;;;4968850;28;20992;-73
2022/04/16 06:49:08;;;;;;;50.03;29.77;;;10.60;57.00;;;;;;4969849;28;20417;-73
2022/04/16 06:51:34;;;;;;;45.40;29.40;;;10.50;57.70;;;;;;4966701;28;20778;-73
2022/04/16 06:54:00;;;;;;;41.97;27.03;;;10.50;58.80;;;;;;4970374;28;20402;-73
2022/04/16 06:56:25;;;;;;;48.88;27.90;;;10.60;59.60;;;;;;4964418;28;20782;-73
2022/04/16 06:58:51;;;;;;;45.03;28.10;;;10.70;57.60;;;;;;4963178;28;20458;-74
2022/04/16 07:01:16;;;;;;;41.63;28.47;;;10.70;56.40;;;;;;4965176;28;20478;-74
2022/04/16 07:03:42;;;;;;;46.07;28.60;;;10.60;58.00;;;;;;4969845;28;20755;-73
2022/04/16 07:06:07;;;;;;;45.07;26.90;;;10.60;57.40;;;;;;4971863;28;20806;-74
2022/04/16 07:08:33;;;;;;;43.67;27.17;;;10.80;57.20;;;;;;4971740;28;20475;-74
2022/04/16 07:10:58;;;;;;;40.57;26.40;;;10.90;55.50;;;;;;4966181;28;20420;-74
2022/04/16 07:13:24;;;;;;;43.07;26.27;;;10.90;55.00;;;;;;4962643;28;20595;-74
2022/04/16 07:15:50;;;;;;;38.50;25.23;;;11.00;54.20;;;;;;4971713;28;20485;-74
2022/04/16 07:18:15;;;;;;;44.05;27.90;;;11.10;53.20;;;;;;4972108;28;20412;-74
2022/04/16 07:20:42;;;;;;;40.60;25.17;;;11.00;52.40;;;;;;4967131;28;20491;-74
2022/04/16 07:23:08;;;;;;;38.05;24.73;;;10.90;52.80;;;;;;4967099;28;20427;-76
2022/04/16 07:25:34;;;;;;;36.63;23.10;;;10.90;51.60;;;;;;4968336;28;20434;-75
2022/04/16 07:28:00;;;;;;;39.17;23.73;;;11.10;51.60;;;;;;4976429;28;20396;-76
2022/04/16 07:30:27;;;;;;;40.43;23.77;;;11.10;49.60;;;;;;4971032;28;20424;-76
2022/04/16 07:32:53;;;;;;;38.58;23.45;;;11.20;48.40;;;;;;4964501;28;20500;-76
2022/04/16 07:35:19;;;;;;;36.87;23.00;;;11.30;49.60;;;;;;4964086;28;20525;-76
2022/04/16 07:37:46;;;;;;;35.93;22.60;;;11.40;49.00;;;;;;4964409;28;20991;-76
2022/04/16 07:40:12;;;;;;;36.75;22.92;;;11.50;45.20;;;;;;4965316;28;20474;-76
2022/04/16 07:42:38;;;;;;;35.40;21.42;;;11.60;44.60;;;;;;4967772;28;20471;-76
2022/04/16 07:45:05;;;;;;;30.42;21.15;;;11.60;45.30;;;;;;4979716;28;20466;-76
2022/04/16 07:47:31;;;;;;;32.47;21.50;;;11.60;43.00;;;;;;4967959;28;20419;-76
2022/04/16 07:49:57;;;;;;;31.20;20.37;;;11.60;43.10;;;;;;4969093;28;20422;-76
2022/04/16 07:52:24;;;;;;;30.80;20.77;;;11.70;42.60;;;;;;4971845;28;20900;-76
2022/04/16 07:54:53;;;;;;;31.15;20.00;;;11.80;42.10;;;;;;4974905;28;20506;-76
2022/04/16 07:57:19;;;;;;;31.50;20.40;;;11.90;42.30;;;;;;4978277;28;20450;-75
2022/04/16 07:59:44;;;;;;;33.53;20.40;;;11.90;39.60;;;;;;4972574;28;20446;-76
2022/04/16 08:02:10;;;;;;;30.43;19.97;;;11.90;40.20;;;;;;4974210;28;20416;-76
2022/04/16 08:04:36;;;;;;;29.70;19.37;;;12.00;40.70;;;;;;4974057;28;20479;-75
2022/04/16 08:07:01;;;;;;;30.07;18.70;;;12.20;38.60;;;;;;4972987;28;20425;-75
2022/04/16 08:09:27;;;;;;;26.80;17.97;;;12.20;39.50;;;;;;4976915;28;20419;-75
2022/04/16 08:11:52;;;;;;;26.85;17.02;;;12.40;38.00;;;;;;4975187;28;20448;-74
2022/04/16 08:14:20;;;;;;;29.05;18.45;;;12.40;36.50;;;;;;4981655;28;20408;-75
2022/04/16 08:16:46;;;;;;;29.00;18.35;;;12.40;36.60;;;;;;4991780;28;20411;-75
2022/04/16 08:19:11;;;;;;;26.98;18.17;;;12.40;35.40;;;;;;4979074;28;20404;-76
2022/04/16 08:21:37;;;;;;;29.08;18.77;;;12.40;35.30;;;;;;4973658;28;20913;-76
2022/04/16 08:24:13;;;;;;;25.45;17.25;;;12.40;35.20;;;;;;4966575;28;20492;-77
2022/04/16 08:26:42;;;;;;;25.75;17.17;;;12.30;34.90;;;;;;4969953;28;20500;-76
2022/04/16 08:29:08;;;;;;;24.13;16.40;;;12.40;38.00;;;;;;4975519;28;20404;-76
2022/04/16 08:31:34;;;;;;;23.50;15.98;;;12.50;35.50;;;;;;4975963;28;20550;-77
2022/04/16 08:34:00;;;;;;;24.77;17.27;;;12.60;33.80;;;;;;4973035;28;20423;-76
2022/04/16 08:36:26;;;;;;;24.50;16.75;;;12.60;32.90;;;;;;4975213;28;20407;-75
2022/04/16 08:38:52;;;;;;;24.50;16.20;;;12.70;34.50;;;;;;4975606;28;20414;-77
2022/04/16 08:41:18;;;;;;;21.58;15.27;;;12.80;34.00;;;;;;4981676;28;20436;-77
2022/04/16 08:43:44;;;;;;;21.30;15.00;;;12.80;32.10;;;;;;4982800;28;20416;-77
2022/04/16 08:46:10;;;;;;;20.08;13.57;;;12.90;30.60;;;;;;4980914;28;20922;-77
2022/04/16 08:48:37;;;;;;;17.67;12.93;;;12.90;30.40;;;;;;4980471;28;20419;-78
2022/04/16 08:51:03;;;;;;;19.05;12.80;;;13.00;29.10;;;;;;4993001;28;20412;-79
2022/04/16 08:53:29;;;;;;;20.73;12.60;;;13.00;29.30;;;;;;4984896;28;20410;-75
2022/04/16 08:55:54;;;;;;;19.55;13.30;;;13.10;29.70;;;;;;4994356;28;20480;-77
2022/04/16 08:58:20;;;;;;;16.40;11.48;;;13.20;28.70;;;;;;5001230;28;20692;-74
2022/04/16 09:00:47;;;;;;;16.05;10.63;;;13.10;28.30;;;;;;4995919;28;20474;-77
2022/04/16 09:03:13;;;;;;;14.02;9.00;;;13.30;26.60;;;;;;4992633;28;20487;-74
2022/04/16 09:05:39;;;;;;;13.32;8.70;;;13.40;23.20;;;;;;4991146;28;20420;-77
2022/04/16 09:08:05;;;;;;;12.82;9.50;;;13.40;24.00;;;;;;4992432;28;20378;-77
2022/04/16 09:10:33;;;;;;;12.68;9.77;;;13.50;23.50;;;;;;4998024;28;20406;-78
2022/04/16 09:13:01;;;;;;;14.73;10.52;;;13.60;24.00;;;;;;4993766;28;20445;-76
2022/04/16 09:15:28;;;;;;;15.90;10.37;;;13.60;24.70;;;;;;4990905;28;20423;-77
2022/04/16 09:18:05;;;;;;;12.37;8.50;;;13.90;25.10;;;;;;4995492;28;20416;-77
2022/04/16 09:20:36;;;;;;;9.25;7.75;;;14.00;22.20;;;;;;4996320;28;20407;-77
2022/04/16 09:23:14;;;;;;;8.07;6.55;;;14.10;19.50;;;;;;4980292;28;20419;-79
2022/04/16 09:25:42;;;;;;;9.18;6.43;;;14.20;19.60;;;;;;4996516;28;20428;-77
2022/04/16 09:28:08;;;;;;;8.67;6.20;;;14.20;18.60;;;;;;4981963;28;20456;-77
2022/04/16 09:30:34;;;;;;;8.00;6.40;;;14.30;19.50;;;;;;4987499;28;20406;-78
2022/04/16 09:33:01;;;;;;;12.20;7.77;;;14.50;18.90;;;;;;4986246;28;20428;-77
2022/04/16 09:35:27;;;;;;;8.85;6.05;;;14.60;20.00;;;;;;4986114;28;20412;-77
2022/04/16 09:38:14;;;;;;;6.90;5.60;;;14.60;17.50;;;;;;4973845;28;20843;-77
2022/04/16 09:40:41;;;;;;;7.90;5.95;;;14.60;16.90;;;;;;4983720;28;20789;-77
2022/04/16 09:43:08;;;;;;;7.10;5.70;;;14.60;16.00;;;;;;4976630;28;20412;-77
2022/04/16 09:45:37;;;;;;;7.20;5.35;;;14.30;17.30;;;;;;4974334;28;20420;-76
2022/04/16 09:48:04;;;;;;;6.22;4.57;;;14.30;17.30;;;;;;4980761;28;20454;-79
2022/04/16 09:50:30;;;;;;;5.88;5.28;;;14.40;17.50;;;;;;4980384;28;20437;-75
2022/04/16 09:53:09;;;;;;;8.57;6.18;;;14.50;17.80;;;;;;4969122;28;20418;-75
2022/04/16 09:55:36;;;;;;;7.70;6.00;;;14.70;18.10;;;;;;4973561;28;20420;-76
2022/04/16 09:58:05;;;;;;;8.80;6.30;;;14.70;17.90;;;;;;4973619;28;21357;-76
2022/04/16 10:00:37;;;;;;;8.43;6.68;;;14.70;16.10;;;;;;4975423;28;20411;-77
2022/04/16 10:03:06;;;;;;;10.73;7.80;;;14.60;16.80;;;;;;4977695;28;20491;-77
2022/04/16 10:05:32;;;;;;;10.10;7.75;;;14.60;17.00;;;;;;5000450;23;20854;-77
2022/04/16 10:08:07;;;;;;;11.00;7.95;;;14.70;18.00;;;;;;5022144;28;20394;-77
2022/04/16 10:14:24;;;;;;;8.90;7.18;;;14.70;17.50;;;;;;5004221;28;20424;-77
2022/04/16 10:17:45;;;;;;;18.05;8.93;;;15.00;17.40;;;;;;5008400;28;20408;-76
2022/04/16 10:20:19;;;;;;;11.23;7.90;;;14.90;18.30;;;;;;4927920;29;20432;-76
2022/04/16 10:22:54;;;;;;;13.77;8.70;;;14.90;17.70;;;;;;4996753;28;20997;-76
2022/04/16 10:25:42;;;;;;;11.93;7.72;;;14.80;18.40;;;;;;5015143;28;20495;-76
2022/04/16 10:28:23;;;;;;;10.15;7.68;;;14.80;17.30;;;;;;5018703;28;20401;-76
2022/04/16 10:30:54;;;;;;;10.95;8.10;;;14.50;17.10;;;;;;5005110;28;20509;-76
2022/04/16 10:33:27;;;;;;;12.65;8.70;;;14.60;18.20;;;;;;5025263;28;20396;-76
2022/04/16 10:36:09;;;;;;;11.32;8.45;;;14.60;18.70;;;;;;5019087;28;20471;-76
2022/04/16 10:38:43;;;;;;;12.18;8.00;;;14.60;18.70;;;;;;5017941;28;20409;-75
2022/04/16 10:41:19;;;;;;;12.55;8.60;;;14.70;17.50;;;;;;5014480;28;20434;-76
2022/04/16 10:43:55;;;;;;;10.68;8.07;;;14.90;17.20;;;;;;5016636;28;20957;-77
2022/04/16 10:46:21;;;;;;;10.68;8.05;;;14.80;18.20;;;;;;5029405;28;20470;-75
2022/04/16 10:48:49;;;;;;;11.63;8.70;;;14.90;17.60;;;;;;5015903;28;20420;-79
2022/04/16 10:51:23;;;;;;;10.65;8.30;;;14.90;18.00;;;;;;5018884;28;20387;-78
2022/04/16 10:53:49;;;;;;;10.98;8.45;;;14.90;17.40;;;;;;5017252;28;20413;-74
2022/04/16 10:56:22;;;;;;;12.00;8.57;;;15.10;17.00;;;;;;5021601;28;20412;-74
2022/04/16 10:59:00;;;;;;;10.50;8.07;;;15.20;17.50;;;;;;5012227;28;20914;-75
2022/04/16 11:01:27;;;;;;;14.88;9.00;;;15.30;17.60;;;;;;5015459;28;20403;-75
2022/04/16 11:03:56;;;;;;;17.40;10.25;;;15.30;17.20;;;;;;5015204;28;20415;-76
2022/04/16 11:06:35;;;;;;;14.57;8.85;;;15.20;16.10;;;;;;5014740;28;20405;-76
2022/04/16 11:09:00;;;;;;;16.88;10.40;;;15.10;16.70;;;;;;5015576;28;20905;-75
2022/04/16 11:11:26;;;;;;;16.10;9.55;;;15.20;16.20;;;;;;5016644;28;20406;-74
2022/04/16 11:13:51;;;;;;;13.95;9.82;;;15.10;16.40;;;;;;5014524;28;20458;-74
2022/04/16 11:16:22;;;;;;;13.55;9.77;;;15.20;17.90;;;;;;5016794;28;20760;-75
2022/04/16 11:18:48;;;;;;;12.45;9.90;;;15.30;16.70;;;;;;5009269;28;20872;-75
2022/04/16 11:21:33;;;;;;;13.98;9.70;;;15.20;16.10;;;;;;5010058;28;20423;-74
2022/04/16 11:24:05;;;;;;;15.27;10.13;;;15.20;17.20;;;;;;5016214;28;20876;-74
2022/04/16 11:34:51;;;;;;;14.50;10.07;;;15.40;16.60;;;;;;5014293;28;20455;-76
2022/04/16 11:37:17;;;;;;;14.35;9.68;;;15.50;17.10;;;;;;5016508;28;20383;-75
2022/04/16 11:39:42;;;;;;;13.77;8.90;;;15.60;16.90;;;;;;5004690;28;20406;-75
2022/04/16 11:42:09;;;;;;;14.60;9.98;;;15.90;16.70;;;;;;5016213;28;20417;-76
2022/04/16 11:44:43;;;;;;;20.95;10.18;;;15.90;16.10;;;;;;5013162;28;20538;-76
2022/04/16 11:47:12;;;;;;;14.10;9.95;;;16.10;15.40;;;;;;5008710;28;20392;-76
2022/04/16 11:49:41;;;;;;;14.43;10.10;;;15.90;14.10;;;;;;5010128;28;20417;-76
2022/04/16 11:52:08;;;;;;;13.18;10.68;;;15.70;15.00;;;;;;5012503;28;20400;-75
2022/04/16 11:54:34;;;;;;;13.27;9.73;;;15.70;15.80;;;;;;5008514;28;20551;-76
2022/04/16 11:56:59;;;;;;;13.45;10.15;;;15.90;14.40;;;;;;5011765;28;20895;-76
2022/04/16 11:59:26;;;;;;;14.25;9.52;;;15.90;14.70;;;;;;5020542;28;20410;-76
2022/04/16 12:02:09;;;;;;;13.75;9.70;;;15.90;14.10;;;;;;5015943;28;20412;-76
2022/04/16 12:04:36;;;;;;;13.90;9.70;;;16.00;15.20;;;;;;5017296;28;20404;-77
2022/04/16 12:07:02;;;;;;;11.43;8.70;;;16.00;14.10;;;;;;5014510;28;20440;-75
2022/04/16 12:09:31;;;;;;;14.77;9.50;;;16.00;14.70;;;;;;5020655;28;20495;-76
2022/04/16 12:11:59;;;;;;;14.63;9.73;;;16.20;16.20;;;;;;5017225;28;20394;-76
2022/04/16 12:14:24;;;;;;;14.10;9.85;;;16.30;14.20;;;;;;5030085;28;20449;-76
2022/04/16 12:17:00;;;;;;;14.20;9.50;;;16.30;14.60;;;;;;5020877;28;20500;-75
2022/04/16 12:19:35;;;;;;;12.02;9.02;;;16.30;13.90;;;;;;5018348;28;20424;-75
2022/04/16 12:22:00;;;;;;;13.95;8.90;;;16.10;14.10;;;;;;5023838;28;20397;-74
2022/04/16 12:24:29;;;;;;;12.40;8.60;;;15.90;14.10;;;;;;5029642;28;20454;-75
2022/04/16 12:26:58;;;;;;;11.93;8.73;;;15.70;14.60;;;;;;5017400;28;20397;-75
2022/04/16 12:29:29;;;;;;;12.10;8.77;;;16.00;14.00;;;;;;5012540;28;20552;-75
2022/04/16 12:31:59;;;;;;;11.93;9.05;;;16.10;13.10;;;;;;5011907;28;20422;-76
2022/04/16 12:34:27;;;;;;;11.15;8.20;;;16.00;14.00;;;;;;5015652;28;20443;-75
2022/04/16 12:36:54;;;;;;;11.40;7.80;;;16.30;14.40;;;;;;5009134;28;20414;-76
2022/04/16 12:39:20;;;;;;;10.50;7.70;;;16.50;14.00;;;;;;5013332;28;20432;-76
2022/04/16 12:41:45;;;;;;;13.10;8.07;;;16.60;14.10;;;;;;5014183;28;20405;-78
2022/04/16 12:44:11;;;;;;;11.02;7.72;;;16.70;14.30;;;;;;5013341;28;20424;-77
2022/04/16 12:46:37;;;;;;;11.32;7.20;;;16.90;14.10;;;;;;5014742;28;20748;-77
2022/04/16 12:49:02;;;;;;;12.90;7.88;;;17.10;13.30;;;;;;5016380;28;20414;-77
2022/04/16 12:51:28;;;;;;;12.60;7.03;;;17.30;11.80;;;;;;5014736;28;20551;-77
2022/04/16 12:53:54;;;;;;;10.50;7.00;;;17.30;12.10;;;;;;5014135;28;20887;-77
2022/04/16 12:56:19;;;;;;;10.52;7.25;;;17.40;12.40;;;;;;5020442;28;20900;-76
2022/04/16 12:58:45;;;;;;;9.00;7.05;;;17.50;12.80;;;;;;5031103;28;20949;-76
2022/04/16 13:01:11;;;;;;;10.57;7.50;;;17.50;10.60;;;;;;5023654;28;20400;-76
2022/04/16 13:03:36;;;;;;;9.40;7.43;;;17.20;11.60;;;;;;5032789;28;20434;-75